METAR Data
IDs: Format: Raw Decoded Include TAF

Data at: 2125 UTC 18 Apr 2021

EDTY 182050Z AUTO 23004KT 9999 // SCT070/// OVC086/// 06/03 Q1019